Terminal Aerodrome Forecast
Issued by NWS

Home | Current Version | Previous Version | Graphics & Text | Print | Product List | Glossary On
Versions: 1 2 3 4 5 6 7 8 9 10 11 12 13 14 15 16 17 18 19 20 21 22 23 24
000
FTUS43 KGRB 180740 AAA
TAFRHI
TAF AMD
KRHI 180740Z 1808/1906 24005KT 6SM BR SCT004
      TEMPO 1808/1810 1/2SM FG OVC002
     FM181000 24005KT 1/2SM FG OVC002
     FM181400 22008KT 3SM BR BKN005
     FM181700 22009KT P6SM SCT012
     FM182300 23006KT P6SM SKC=

USA.gov is the U.S. government's official web portal to all federal, state and local government web resources and services.